Time;durP1;ratioP1;P1;durP2;ratioP2;P2;SDS_P1;SDS_P2;PMS_P1;PMS_P2;Temp;Humidity;BMP_temperature;BMP_pressure;BME280_temperature;BME280_humidity;BME280_pressure;Samples;Min_cycle;Max_cycle;Signal;HPM_P1;HPM_P2
2024/02/18 00:02:00;;;;;;;3.35;1.27;;;11.00;99.90;;;;;;5016555;28;20075;-67
2024/02/18 00:04:27;;;;;;;4.10;1.60;;;11.00;99.90;;;;;;5016239;28;20038;-67
2024/02/18 00:06:54;;;;;;;3.20;1.45;;;11.00;99.90;;;;;;5016438;28;20049;-68
2024/02/18 00:09:21;;;;;;;3.05;1.20;;;11.00;99.90;;;;;;5016022;28;20124;-67
2024/02/18 00:11:48;;;;;;;1.83;1.00;;;11.00;99.90;;;;;;5014604;28;20100;-68
2024/02/18 00:14:14;;;;;;;2.60;1.10;;;11.00;99.90;;;;;;5015774;28;20521;-67
2024/02/18 00:16:41;;;;;;;1.67;1.00;;;11.00;99.90;;;;;;5015782;28;20057;-66
2024/02/18 00:19:09;;;;;;;2.75;1.30;;;11.00;99.90;;;;;;5015763;28;20034;-67
2024/02/18 00:21:37;;;;;;;2.75;1.00;;;11.00;99.90;;;;;;5015570;28;20042;-67
2024/02/18 00:24:04;;;;;;;1.58;0.90;;;11.00;99.90;;;;;;5016239;28;20479;-69
2024/02/18 00:26:31;;;;;;;3.65;1.10;;;11.00;99.90;;;;;;5015776;28;20042;-69
2024/02/18 00:29:15;;;;;;;1.80;0.90;;;11.00;99.90;;;;;;5016085;28;20030;-67
2024/02/18 00:31:42;;;;;;;1.92;0.90;;;11.00;99.90;;;;;;5014649;28;20395;-67
2024/02/18 00:34:09;;;;;;;2.95;0.90;;;11.00;99.90;;;;;;5014535;28;20129;-69
2024/02/18 00:36:36;;;;;;;6.20;0.95;;;11.00;99.90;;;;;;5015982;28;20057;-69
2024/02/18 00:39:03;;;;;;;2.95;0.93;;;11.00;99.90;;;;;;5015673;28;20069;-69
2024/02/18 00:41:30;;;;;;;2.28;0.85;;;11.00;99.90;;;;;;5015298;28;20566;-69
2024/02/18 00:43:56;;;;;;;2.33;0.90;;;11.00;99.90;;;;;;5015595;28;20052;-69
2024/02/18 00:46:23;;;;;;;1.60;0.70;;;11.00;99.90;;;;;;5015675;28;20092;-69
2024/02/18 00:49:10;;;;;;;2.50;1.20;;;11.00;99.90;;;;;;5015490;28;20527;-69
2024/02/18 00:51:37;;;;;;;2.92;0.90;;;11.00;99.90;;;;;;5015239;28;20431;-69
2024/02/18 00:54:03;;;;;;;2.13;0.80;;;11.00;99.90;;;;;;5015094;28;20042;-69
2024/02/18 00:56:30;;;;;;;3.05;0.73;;;11.00;99.90;;;;;;5014909;28;20038;-69
2024/02/18 00:58:57;;;;;;;1.70;0.70;;;11.00;99.90;;;;;;5015181;28;20042;-69
2024/02/18 01:01:24;;;;;;;4.20;0.90;;;11.00;99.90;;;;;;5014790;28;20046;-69
2024/02/18 01:03:51;;;;;;;1.95;0.80;;;11.00;99.90;;;;;;5015052;28;20057;-69
2024/02/18 01:06:18;;;;;;;2.15;0.80;;;11.00;99.90;;;;;;5014686;28;20049;-69
2024/02/18 01:08:45;;;;;;;3.55;0.98;;;11.00;99.90;;;;;;5015029;28;20467;-69
2024/02/18 01:11:12;;;;;;;1.80;0.73;;;11.00;99.90;;;;;;5014978;28;20550;-69
2024/02/18 01:13:39;;;;;;;3.53;0.82;;;11.00;99.90;;;;;;5014797;28;20104;-69
2024/02/18 01:16:06;;;;;;;1.38;0.60;;;11.00;99.90;;;;;;5014785;28;20092;-69
2024/02/18 01:18:32;;;;;;;2.25;0.85;;;11.00;99.90;;;;;;5014817;28;20053;-69
2024/02/18 01:20:59;;;;;;;1.48;0.70;;;11.00;99.90;;;;;;5014936;28;20041;-69
2024/02/18 01:23:26;;;;;;;1.80;0.68;;;11.00;99.90;;;;;;5014775;28;20038;-69
2024/02/18 01:25:53;;;;;;;1.80;0.80;;;11.00;99.90;;;;;;5014899;28;20042;-69
2024/02/18 01:28:20;;;;;;;1.77;0.70;;;11.00;99.90;;;;;;5014819;28;20038;-69
2024/02/18 01:30:47;;;;;;;1.33;0.70;;;11.00;99.90;;;;;;5014687;28;20049;-69
2024/02/18 01:33:13;;;;;;;2.80;0.68;;;11.00;99.90;;;;;;5012457;28;20041;-69
2024/02/18 01:35:40;;;;;;;1.92;0.73;;;11.00;99.90;;;;;;5014824;28;20104;-69
2024/02/18 01:38:07;;;;;;;2.03;0.80;;;11.00;99.90;;;;;;5014713;28;20414;-69
2024/02/18 01:40:34;;;;;;;2.22;0.82;;;10.90;99.90;;;;;;5014852;28;20042;-69
2024/02/18 01:43:01;;;;;;;1.17;0.50;;;11.00;99.90;;;;;;5014817;28;20072;-69
2024/02/18 01:45:27;;;;;;;1.85;0.80;;;10.90;99.90;;;;;;5014528;28;20137;-70
2024/02/18 01:47:55;;;;;;;1.73;0.50;;;11.00;99.90;;;;;;5014583;28;20113;-69
2024/02/18 01:50:22;;;;;;;2.95;0.70;;;11.00;99.90;;;;;;5014436;28;20084;-69
2024/02/18 01:52:49;;;;;;;1.75;0.60;;;11.00;99.90;;;;;;5014391;28;20088;-68
2024/02/18 01:55:15;;;;;;;4.60;0.60;;;11.00;99.90;;;;;;5013242;28;20045;-68
2024/02/18 01:57:42;;;;;;;1.00;0.40;;;11.00;99.90;;;;;;5014122;28;20407;-68
2024/02/18 02:00:12;;;;;;;1.33;0.52;;;11.00;99.90;;;;;;5014458;28;20419;-69
2024/02/18 02:02:39;;;;;;;1.83;0.73;;;10.90;99.90;;;;;;5014084;28;20069;-69
2024/02/18 02:05:06;;;;;;;4.30;1.02;;;10.90;99.90;;;;;;5014025;28;20046;-69
2024/02/18 02:07:33;;;;;;;1.50;0.60;;;10.90;99.90;;;;;;5012860;28;20081;-68
2024/02/18 02:10:00;;;;;;;1.65;0.68;;;10.90;99.90;;;;;;5014295;28;20038;-69
2024/02/18 02:12:27;;;;;;;1.73;0.73;;;10.90;99.90;;;;;;5013584;28;20066;-69
2024/02/18 02:14:54;;;;;;;2.40;0.60;;;10.90;99.90;;;;;;5013512;28;20041;-69
2024/02/18 02:17:20;;;;;;;2.40;0.73;;;10.90;99.90;;;;;;5014079;28;20404;-69
2024/02/18 02:19:47;;;;;;;3.05;0.60;;;10.90;99.90;;;;;;5014051;28;20042;-69
2024/02/18 02:22:14;;;;;;;1.55;0.50;;;10.90;99.90;;;;;;5014224;28;20034;-69
2024/02/18 02:24:41;;;;;;;2.38;0.57;;;10.90;99.90;;;;;;5013823;28;20492;-69
2024/02/18 02:27:07;;;;;;;1.27;0.35;;;10.90;99.90;;;;;;5013013;28;20068;-68
2024/02/18 02:29:34;;;;;;;2.40;0.40;;;10.90;99.90;;;;;;5013900;28;20044;-69
2024/02/18 02:32:01;;;;;;;1.73;0.60;;;10.90;99.90;;;;;;5013839;28;20038;-69
2024/02/18 02:34:28;;;;;;;1.17;0.50;;;10.90;99.90;;;;;;5013695;28;20375;-68
2024/02/18 02:36:55;;;;;;;2.28;0.40;;;10.90;99.90;;;;;;5013862;28;20046;-69
2024/02/18 02:39:22;;;;;;;1.70;0.50;;;10.90;99.90;;;;;;5013703;28;20096;-69
2024/02/18 02:41:49;;;;;;;1.10;0.47;;;10.90;99.90;;;;;;5013341;28;20050;-69
2024/02/18 02:44:15;;;;;;;3.28;0.40;;;10.90;99.90;;;;;;5015161;28;20050;-68
2024/02/18 02:46:42;;;;;;;2.05;0.40;;;10.90;99.90;;;;;;5017771;28;20489;-69
2024/02/18 02:49:09;;;;;;;1.05;0.45;;;10.80;99.90;;;;;;5017601;28;20046;-69
2024/02/18 02:51:36;;;;;;;3.63;0.60;;;10.90;99.90;;;;;;5017873;28;20501;-69
2024/02/18 02:54:03;;;;;;;2.17;0.60;;;10.80;99.90;;;;;;5017395;28;20042;-69
2024/02/18 02:56:30;;;;;;;1.15;0.40;;;10.90;99.90;;;;;;5017083;28;20517;-69
2024/02/18 02:58:57;;;;;;;2.65;0.65;;;10.80;99.90;;;;;;5017126;28;20050;-68
2024/02/18 03:01:24;;;;;;;4.97;0.68;;;10.90;99.90;;;;;;5017303;28;20038;-68
2024/02/18 03:03:51;;;;;;;1.67;0.40;;;10.90;99.90;;;;;;5017425;28;20430;-68
2024/02/18 03:06:17;;;;;;;1.25;0.40;;;10.90;99.90;;;;;;5016995;28;20081;-68
2024/02/18 03:08:45;;;;;;;1.05;0.47;;;10.90;99.90;;;;;;5017546;28;20048;-68
2024/02/18 03:11:11;;;;;;;2.78;0.50;;;10.90;99.90;;;;;;5017510;28;20041;-68
2024/02/18 03:13:40;;;;;;;0.90;0.47;;;10.90;99.90;;;;;;5017146;28;20038;-68
2024/02/18 03:16:07;;;;;;;1.13;0.40;;;10.80;99.90;;;;;;5017268;28;20046;-69
2024/02/18 03:18:34;;;;;;;0.75;0.35;;;10.80;99.90;;;;;;5017258;28;20077;-68
2024/02/18 03:21:01;;;;;;;1.40;0.40;;;10.80;99.90;;;;;;5017334;28;20046;-69
2024/02/18 03:23:28;;;;;;;1.35;0.47;;;10.80;99.90;;;;;;5016906;28;20046;-69
2024/02/18 03:25:54;;;;;;;2.45;0.55;;;10.80;99.90;;;;;;5016736;28;20053;-68
2024/02/18 03:28:21;;;;;;;1.50;0.38;;;10.80;99.90;;;;;;5017026;28;20359;-68
2024/02/18 03:30:50;;;;;;;0.93;0.40;;;10.80;99.90;;;;;;5017008;28;20459;-68
2024/02/18 03:33:18;;;;;;;0.90;0.40;;;10.80;99.90;;;;;;5017139;28;20530;-69
2024/02/18 03:35:44;;;;;;;1.88;0.30;;;10.80;99.90;;;;;;5015720;28;20037;-69
2024/02/18 03:38:11;;;;;;;1.25;0.47;;;10.80;99.90;;;;;;5015258;28;20093;-69
2024/02/18 03:40:38;;;;;;;3.17;0.57;;;10.80;99.90;;;;;;5016920;28;20042;-69
2024/02/18 03:43:05;;;;;;;1.67;0.40;;;10.80;99.90;;;;;;5016805;28;20042;-69
2024/02/18 03:45:32;;;;;;;1.00;0.47;;;10.80;99.90;;;;;;5017002;28;20044;-69
2024/02/18 03:47:59;;;;;;;1.48;0.50;;;10.80;99.90;;;;;;5016784;28;20426;-69
2024/02/18 03:50:26;;;;;;;1.30;0.50;;;10.80;99.90;;;;;;5016809;28;20042;-69
2024/02/18 03:52:52;;;;;;;1.73;0.47;;;10.80;99.90;;;;;;5016196;28;20052;-69
2024/02/18 03:55:19;;;;;;;0.93;0.40;;;10.80;99.90;;;;;;5015186;28;20108;-69
2024/02/18 03:57:46;;;;;;;2.65;0.50;;;10.80;99.90;;;;;;5016667;28;20056;-69
2024/02/18 04:00:13;;;;;;;3.17;0.50;;;10.80;99.90;;;;;;5016740;28;20066;-69
2024/02/18 04:02:41;;;;;;;1.85;0.60;;;10.80;99.90;;;;;;5016715;28;20052;-69
2024/02/18 04:05:07;;;;;;;1.70;0.60;;;10.70;99.90;;;;;;5015994;28;20045;-69
2024/02/18 04:07:34;;;;;;;1.33;0.60;;;10.70;99.90;;;;;;5016228;28;20046;-69
2024/02/18 04:10:01;;;;;;;2.20;0.50;;;10.70;99.90;;;;;;5015891;28;20038;-69
2024/02/18 04:12:28;;;;;;;2.70;0.43;;;10.70;99.90;;;;;;5015759;28;20038;-70
2024/02/18 04:14:55;;;;;;;2.13;0.60;;;10.70;99.90;;;;;;5015517;28;20183;-70
2024/02/18 04:17:21;;;;;;;3.47;1.33;;;10.70;99.90;;;;;;5016021;28;20497;-69
2024/02/18 04:19:48;;;;;;;2.33;0.68;;;10.70;99.90;;;;;;5016324;28;20111;-69
2024/02/18 04:22:15;;;;;;;1.92;0.55;;;10.70;99.90;;;;;;5015956;28;20050;-68
2024/02/18 04:24:42;;;;;;;1.67;0.45;;;10.60;99.90;;;;;;5015956;28;20123;-69
2024/02/18 04:27:08;;;;;;;1.33;0.40;;;10.70;99.90;;;;;;5015572;28;20066;-69
2024/02/18 04:29:35;;;;;;;2.47;0.55;;;10.70;99.90;;;;;;5016105;28;20353;-69
2024/02/18 04:32:02;;;;;;;2.90;0.40;;;10.70;99.90;;;;;;5016053;28;20062;-69
2024/02/18 04:34:29;;;;;;;2.95;0.60;;;10.70;99.90;;;;;;5015569;28;20471;-69
2024/02/18 04:36:56;;;;;;;1.48;0.50;;;10.70;99.90;;;;;;5015798;28;20038;-69
2024/02/18 04:39:22;;;;;;;1.65;0.60;;;10.70;99.90;;;;;;5015323;28;20487;-69
2024/02/18 04:41:49;;;;;;;2.08;0.57;;;10.70;99.90;;;;;;5015743;28;20379;-69
2024/02/18 04:44:16;;;;;;;2.10;0.50;;;10.70;99.90;;;;;;5015490;28;20069;-69
2024/02/18 04:46:42;;;;;;;3.35;0.50;;;10.70;99.90;;;;;;5015200;28;20107;-69
2024/02/18 04:49:09;;;;;;;2.08;0.47;;;10.60;99.90;;;;;;5015150;28;20399;-68
2024/02/18 04:51:37;;;;;;;1.90;0.50;;;10.60;99.90;;;;;;5014266;28;20068;-69
2024/02/18 04:54:04;;;;;;;2.60;0.60;;;10.70;99.90;;;;;;5015225;28;20049;-69
2024/02/18 04:56:30;;;;;;;1.80;0.50;;;10.70;99.90;;;;;;5014070;28;20499;-69
2024/02/18 04:58:57;;;;;;;2.25;0.40;;;10.70;99.90;;;;;;5014931;28;20050;-69
2024/02/18 05:01:24;;;;;;;2.50;0.50;;;10.60;99.90;;;;;;5014827;28;20096;-69
2024/02/18 05:03:51;;;;;;;2.05;0.52;;;10.70;99.90;;;;;;5014796;28;20317;-69
2024/02/18 05:06:18;;;;;;;4.18;0.45;;;10.60;99.90;;;;;;5014755;28;20046;-69
2024/02/18 05:08:45;;;;;;;1.08;0.40;;;10.60;99.90;;;;;;5015270;28;20037;-69
2024/02/18 05:11:11;;;;;;;1.45;0.30;;;10.60;99.90;;;;;;5014717;28;20038;-69
2024/02/18 05:13:38;;;;;;;2.33;0.30;;;10.60;99.90;;;;;;5014462;28;20475;-69
2024/02/18 05:16:05;;;;;;;0.93;0.30;;;10.60;99.90;;;;;;5014657;28;20045;-69
2024/02/18 05:18:33;;;;;;;1.65;0.50;;;10.60;99.90;;;;;;5015026;28;20482;-69
2024/02/18 05:21:00;;;;;;;1.02;0.30;;;10.60;99.90;;;;;;5014868;28;20094;-69
2024/02/18 05:23:27;;;;;;;1.65;0.30;;;10.60;99.90;;;;;;5014912;28;20364;-69
2024/02/18 05:25:53;;;;;;;0.57;0.30;;;10.60;99.90;;;;;;5014266;28;20041;-69
2024/02/18 05:28:20;;;;;;;0.50;0.20;;;10.60;99.90;;;;;;5014773;28;20050;-69
2024/02/18 05:30:47;;;;;;;0.50;0.22;;;10.60;99.90;;;;;;5013870;28;20111;-69
2024/02/18 05:33:14;;;;;;;1.05;0.20;;;10.60;99.90;;;;;;5014335;28;20545;-69
2024/02/18 05:35:41;;;;;;;1.77;0.30;;;10.60;99.90;;;;;;5012995;28;20405;-70
2024/02/18 05:38:08;;;;;;;0.43;0.20;;;10.60;99.90;;;;;;5014674;28;20037;-69
2024/02/18 05:40:35;;;;;;;1.00;0.30;;;10.60;99.90;;;;;;5013448;28;20138;-70
2024/02/18 05:43:02;;;;;;;0.63;0.30;;;10.60;99.90;;;;;;5014663;28;20044;-70
2024/02/18 05:45:31;;;;;;;1.10;0.40;;;10.60;99.90;;;;;;5014565;28;20038;-69
2024/02/18 05:47:58;;;;;;;1.50;0.30;;;10.60;99.90;;;;;;5012882;28;20464;-69
2024/02/18 05:50:25;;;;;;;0.45;0.20;;;10.60;99.90;;;;;;5014183;28;20444;-69
2024/02/18 05:52:51;;;;;;;0.95;0.30;;;10.60;99.90;;;;;;5014406;28;20034;-69
2024/02/18 05:55:18;;;;;;;0.68;0.32;;;10.60;99.90;;;;;;5013756;28;20041;-68
2024/02/18 05:57:45;;;;;;;0.60;0.20;;;10.60;99.90;;;;;;5014374;28;20498;-69
2024/02/18 06:00:12;;;;;;;0.57;0.20;;;10.60;99.90;;;;;;5014214;28;20406;-68
2024/02/18 06:02:39;;;;;;;0.65;0.30;;;10.60;99.90;;;;;;5014168;28;20042;-68
2024/02/18 06:05:06;;;;;;;0.40;0.20;;;10.60;99.90;;;;;;5013769;28;20491;-69
2024/02/18 06:07:32;;;;;;;0.63;0.20;;;10.60;99.90;;;;;;5014235;28;20054;-69
2024/02/18 06:09:59;;;;;;;1.35;0.20;;;10.60;99.90;;;;;;5014179;28;20046;-69
2024/02/18 06:12:27;;;;;;;0.57;0.20;;;10.60;99.90;;;;;;5013716;28;20046;-69
2024/02/18 06:14:54;;;;;;;0.32;0.20;;;10.60;99.90;;;;;;5013850;28;20497;-69
2024/02/18 06:17:21;;;;;;;1.50;0.30;;;10.60;99.90;;;;;;5013847;28;20046;-69
2024/02/18 06:19:48;;;;;;;0.30;0.17;;;10.50;99.90;;;;;;5013519;28;20054;-69
2024/02/18 06:22:15;;;;;;;0.90;0.20;;;10.50;99.90;;;;;;5016149;28;20049;-69
2024/02/18 06:24:41;;;;;;;1.48;0.77;;;10.60;99.90;;;;;;5033491;28;20037;-70
2024/02/18 06:27:08;;;;;;;1.27;0.30;;;10.50;99.90;;;;;;5032158;28;20191;-69
2024/02/18 06:29:35;;;;;;;0.93;0.20;;;10.50;99.90;;;;;;5032980;28;20045;-69
2024/02/18 06:32:02;;;;;;;0.68;0.30;;;10.50;99.90;;;;;;5033286;28;20095;-70
2024/02/18 06:34:28;;;;;;;1.10;0.30;;;10.50;99.90;;;;;;5033544;28;20044;-69
2024/02/18 06:36:55;;;;;;;0.70;0.30;;;10.50;99.90;;;;;;5033511;28;20038;-69
2024/02/18 06:39:22;;;;;;;1.15;0.32;;;10.50;99.90;;;;;;5033294;28;20076;-69
2024/02/18 06:41:53;;;;;;;0.95;0.30;;;10.60;99.90;;;;;;5033381;28;20116;-71
2024/02/18 06:44:21;;;;;;;0.93;0.20;;;10.50;99.90;;;;;;5033240;28;20045;-69
2024/02/18 06:46:50;;;;;;;0.65;0.30;;;10.50;99.90;;;;;;5033104;28;20136;-69
2024/02/18 06:49:17;;;;;;;1.27;0.30;;;10.50;99.90;;;;;;5033285;28;20069;-69
2024/02/18 06:51:44;;;;;;;3.25;1.38;;;10.60;99.90;;;;;;5033111;28;20077;-70
2024/02/18 06:54:11;;;;;;;2.35;0.30;;;10.60;99.90;;;;;;5032929;28;20041;-69
2024/02/18 06:56:37;;;;;;;1.40;0.35;;;10.60;99.90;;;;;;5032927;28;20053;-69
2024/02/18 06:59:05;;;;;;;1.08;0.30;;;10.60;99.90;;;;;;5033156;28;20050;-69
2024/02/18 07:01:33;;;;;;;2.33;0.30;;;10.60;99.90;;;;;;5033374;28;20048;-64
2024/02/18 07:04:01;;;;;;;0.80;0.20;;;10.50;99.90;;;;;;5033034;28;20041;-64
2024/02/18 07:06:27;;;;;;;0.30;0.17;;;10.60;99.90;;;;;;5033042;28;20052;-63
2024/02/18 07:08:54;;;;;;;1.17;0.20;;;10.60;99.90;;;;;;5032977;28;20037;-63
2024/02/18 07:11:24;;;;;;;0.65;0.13;;;10.60;99.90;;;;;;5031988;28;20049;-63
2024/02/18 07:13:51;;;;;;;0.50;0.20;;;10.60;99.90;;;;;;5033046;28;20057;-64
2024/02/18 07:16:18;;;;;;;1.35;0.20;;;10.60;99.90;;;;;;5033078;28;20046;-63
2024/02/18 07:18:45;;;;;;;0.25;0.20;;;10.50;99.90;;;;;;5033000;28;20038;-68
2024/02/18 07:21:14;;;;;;;0.93;0.30;;;10.60;99.90;;;;;;5033321;28;20371;-69
2024/02/18 07:23:41;;;;;;;0.40;0.20;;;10.60;99.90;;;;;;5032952;28;20370;-69
2024/02/18 07:26:07;;;;;;;0.30;0.20;;;10.60;99.90;;;;;;5032977;28;20049;-63
2024/02/18 07:28:34;;;;;;;0.75;0.20;;;10.60;99.90;;;;;;5033167;28;20053;-63
2024/02/18 07:31:01;;;;;;;1.00;0.17;;;10.60;99.90;;;;;;5036044;28;20099;-62
2024/02/18 07:33:28;;;;;;;1.15;0.20;;;10.60;99.90;;;;;;5036618;28;20462;-62
2024/02/18 07:35:55;;;;;;;0.57;0.10;;;10.70;99.90;;;;;;5036656;28;20041;-62
2024/02/18 07:38:21;;;;;;;0.82;0.20;;;10.70;99.90;;;;;;5036619;28;20048;-62
2024/02/18 07:40:48;;;;;;;0.32;0.20;;;10.70;99.90;;;;;;5036528;28;20045;-62
2024/02/18 07:43:15;;;;;;;0.98;0.28;;;10.80;99.90;;;;;;5036813;28;20073;-62
2024/02/18 07:45:42;;;;;;;0.50;0.20;;;10.80;99.90;;;;;;5034750;28;20049;-62
2024/02/18 07:48:09;;;;;;;1.08;0.20;;;10.80;99.90;;;;;;5036575;28;20493;-62
2024/02/18 07:50:36;;;;;;;0.60;0.10;;;10.80;99.90;;;;;;5036365;28;20073;-62
2024/02/18 07:53:03;;;;;;;0.65;0.20;;;10.90;99.90;;;;;;5036302;28;20061;-62
2024/02/18 07:55:31;;;;;;;0.57;0.20;;;10.90;99.90;;;;;;5035890;28;20498;-62
2024/02/18 07:57:58;;;;;;;0.73;0.30;;;10.90;99.90;;;;;;5036049;28;20142;-62
2024/02/18 08:00:26;;;;;;;0.68;0.17;;;11.00;99.90;;;;;;5036349;28;20048;-62
2024/02/18 08:02:53;;;;;;;0.38;0.15;;;11.00;99.90;;;;;;5036019;28;20425;-61
2024/02/18 08:05:20;;;;;;;1.30;0.30;;;11.00;99.90;;;;;;5036024;28;20099;-62
2024/02/18 08:07:47;;;;;;;0.75;0.30;;;11.00;99.90;;;;;;5035909;28;20063;-62
2024/02/18 08:10:14;;;;;;;0.57;0.30;;;11.10;99.90;;;;;;5035846;28;20048;-62
2024/02/18 08:12:41;;;;;;;0.55;0.20;;;11.10;99.90;;;;;;5036000;28;20125;-62
2024/02/18 08:15:08;;;;;;;0.80;0.40;;;11.10;99.90;;;;;;5035415;28;20049;-63
2024/02/18 08:17:34;;;;;;;0.80;0.30;;;11.10;99.90;;;;;;5035858;28;20038;-62
2024/02/18 08:20:01;;;;;;;2.83;0.20;;;11.10;99.90;;;;;;5035531;28;20048;-63
2024/02/18 08:22:28;;;;;;;0.50;0.20;;;11.20;99.90;;;;;;5035827;28;20132;-62
2024/02/18 08:24:55;;;;;;;0.55;0.20;;;11.10;99.90;;;;;;5035781;28;20096;-62
2024/02/18 08:27:22;;;;;;;1.48;0.30;;;11.10;99.90;;;;;;5035660;28;20091;-62
2024/02/18 08:29:48;;;;;;;1.25;0.30;;;11.20;99.90;;;;;;5035337;28;20041;-62
2024/02/18 08:32:15;;;;;;;1.48;0.20;;;11.20;99.90;;;;;;5035618;28;20037;-62
2024/02/18 08:34:42;;;;;;;0.85;0.30;;;11.20;99.90;;;;;;5035359;28;20520;-62
2024/02/18 08:37:09;;;;;;;0.85;0.25;;;11.20;99.90;;;;;;5035532;28;20355;-62
2024/02/18 08:39:36;;;;;;;0.90;0.30;;;11.20;99.90;;;;;;5035063;28;20124;-62
2024/02/18 08:42:03;;;;;;;1.23;0.30;;;11.20;99.90;;;;;;5034410;28;20037;-62
2024/02/18 08:44:29;;;;;;;0.52;0.20;;;11.20;99.90;;;;;;5034111;28;20049;-63
2024/02/18 08:46:56;;;;;;;2.00;0.40;;;11.20;99.90;;;;;;5035115;28;20041;-69
2024/02/18 08:49:23;;;;;;;0.82;0.28;;;11.20;99.90;;;;;;5035211;28;20115;-69
2024/02/18 08:51:51;;;;;;;0.90;0.20;;;11.20;99.90;;;;;;5035424;28;20057;-69
2024/02/18 08:54:18;;;;;;;0.60;0.30;;;11.20;99.90;;;;;;5035304;28;20045;-70
2024/02/18 08:56:44;;;;;;;1.73;0.28;;;11.30;99.90;;;;;;5034827;28;20052;-70
2024/02/18 08:59:11;;;;;;;1.10;0.30;;;11.30;99.90;;;;;;5035235;28;20042;-69
2024/02/18 09:01:38;;;;;;;1.35;0.40;;;11.30;99.90;;;;;;5033659;28;20042;-70
2024/02/18 09:04:05;;;;;;;0.93;0.30;;;11.30;99.90;;;;;;5031863;28;20042;-69
2024/02/18 09:06:32;;;;;;;2.55;0.30;;;11.30;99.90;;;;;;5024382;28;20091;-69
2024/02/18 09:08:59;;;;;;;0.93;0.20;;;11.30;99.90;;;;;;5027998;28;20050;-69
2024/02/18 09:11:25;;;;;;;1.17;0.30;;;11.30;99.90;;;;;;5026230;28;20068;-70
2024/02/18 09:13:52;;;;;;;2.05;0.47;;;11.30;99.90;;;;;;5025465;28;20050;-69
2024/02/18 09:16:19;;;;;;;1.00;0.40;;;11.40;99.90;;;;;;5024619;28;20057;-69
2024/02/18 09:18:46;;;;;;;1.50;0.30;;;11.40;99.90;;;;;;5017511;28;20045;-69
2024/02/18 09:21:13;;;;;;;0.70;0.30;;;11.30;99.90;;;;;;5014879;28;20470;-70
2024/02/18 09:23:39;;;;;;;1.00;0.30;;;11.40;99.90;;;;;;5015083;28;20474;-69
2024/02/18 09:26:06;;;;;;;2.17;0.45;;;11.30;99.90;;;;;;5014880;28;20052;-70
2024/02/18 09:28:33;;;;;;;0.52;0.20;;;11.40;99.90;;;;;;5014553;28;20051;-70
2024/02/18 09:31:02;;;;;;;0.85;0.20;;;11.40;99.90;;;;;;5014660;28;20034;-70
2024/02/18 09:33:29;;;;;;;0.52;0.30;;;11.40;99.90;;;;;;5014719;28;20033;-70
2024/02/18 09:35:56;;;;;;;1.27;0.30;;;11.40;99.90;;;;;;5014574;28;20129;-70
2024/02/18 09:38:23;;;;;;;0.80;0.20;;;11.50;99.90;;;;;;5014393;28;20459;-70
2024/02/18 09:40:50;;;;;;;0.52;0.30;;;11.50;99.90;;;;;;5014375;28;20137;-69
2024/02/18 09:43:16;;;;;;;0.73;0.30;;;11.60;99.90;;;;;;5014520;28;20037;-70
2024/02/18 09:45:43;;;;;;;0.60;0.30;;;11.70;99.90;;;;;;5014234;28;20041;-69
2024/02/18 09:48:11;;;;;;;1.08;0.40;;;11.70;99.90;;;;;;5014355;28;20486;-70
2024/02/18 09:50:38;;;;;;;0.75;0.30;;;11.70;99.90;;;;;;5014145;28;20399;-70
2024/02/18 09:53:05;;;;;;;0.90;0.30;;;11.80;99.90;;;;;;5013468;28;20045;-69
2024/02/18 09:55:32;;;;;;;1.45;0.43;;;11.90;99.90;;;;;;5013905;28;20048;-69
2024/02/18 09:57:59;;;;;;;1.02;0.30;;;11.90;99.90;;;;;;5014326;28;20044;-69
2024/02/18 10:00:26;;;;;;;1.02;0.32;;;12.00;99.90;;;;;;5014090;28;20483;-70
2024/02/18 10:02:53;;;;;;;1.35;0.35;;;12.10;99.90;;;;;;5014205;28;20386;-70
2024/02/18 10:05:20;;;;;;;1.30;0.40;;;12.20;99.90;;;;;;5013903;28;20075;-70
2024/02/18 10:07:47;;;;;;;2.10;0.50;;;12.20;99.90;;;;;;5013891;28;20375;-70
2024/02/18 10:10:13;;;;;;;1.23;0.52;;;12.30;99.90;;;;;;5014054;28;20042;-70
2024/02/18 10:12:41;;;;;;;1.10;0.40;;;12.40;99.90;;;;;;5014285;28;20089;-70
2024/02/18 10:15:08;;;;;;;0.77;0.30;;;12.40;99.90;;;;;;5013651;28;20053;-70
2024/02/18 10:17:35;;;;;;;1.83;0.30;;;12.50;99.90;;;;;;5012600;28;20037;-70
2024/02/18 10:20:02;;;;;;;1.65;0.30;;;12.50;99.90;;;;;;5013789;28;20475;-70
2024/02/18 10:22:29;;;;;;;0.75;0.35;;;12.50;99.90;;;;;;5013928;28;20120;-70
2024/02/18 10:24:56;;;;;;;1.23;0.40;;;12.50;99.90;;;;;;5013984;28;20042;-70
2024/02/18 10:27:23;;;;;;;0.80;0.32;;;12.70;99.90;;;;;;5012276;28;20038;-70
2024/02/18 10:29:50;;;;;;;1.45;0.43;;;12.70;99.90;;;;;;5013766;28;20038;-71
2024/02/18 10:32:17;;;;;;;1.60;0.52;;;12.70;99.90;;;;;;5013546;28;20034;-69
2024/02/18 10:34:44;;;;;;;3.90;0.85;;;12.80;99.90;;;;;;5013826;28;20069;-69
2024/02/18 10:37:15;;;;;;;2.45;0.40;;;12.80;99.90;;;;;;5012704;28;20048;-69
2024/02/18 10:39:42;;;;;;;1.55;0.45;;;12.80;99.90;;;;;;5013587;28;20157;-69
2024/02/18 10:42:09;;;;;;;1.90;0.50;;;12.90;99.90;;;;;;5013484;28;20046;-69
2024/02/18 10:44:36;;;;;;;1.77;0.52;;;12.90;99.90;;;;;;5012496;28;20452;-69
2024/02/18 10:47:04;;;;;;;3.03;1.70;;;12.90;99.90;;;;;;5013901;28;20041;-69
2024/02/18 10:49:30;;;;;;;1.45;0.50;;;12.90;99.90;;;;;;5013750;28;20042;-69
2024/02/18 10:51:57;;;;;;;3.83;0.65;;;12.90;99.90;;;;;;5013591;28;20038;-69
2024/02/18 10:54:26;;;;;;;1.83;0.50;;;12.90;99.90;;;;;;5013752;28;20064;-68
2024/02/18 10:56:53;;;;;;;1.30;0.50;;;13.00;99.90;;;;;;5013727;28;20479;-69
2024/02/18 10:59:20;;;;;;;1.63;0.50;;;13.00;99.90;;;;;;5013772;28;20092;-70
2024/02/18 11:01:46;;;;;;;1.23;0.50;;;13.00;99.90;;;;;;5013561;28;20042;-69
2024/02/18 11:04:13;;;;;;;2.47;0.50;;;13.00;99.90;;;;;;5013516;28;20057;-69
2024/02/18 11:06:40;;;;;;;1.25;0.40;;;12.90;99.90;;;;;;5017016;28;20502;-69
2024/02/18 11:09:08;;;;;;;3.03;0.45;;;12.90;99.90;;;;;;5017310;28;20100;-69
2024/02/18 11:11:35;;;;;;;2.00;0.55;;;12.90;99.90;;;;;;5017212;28;20379;-69
2024/02/18 11:14:02;;;;;;;3.38;0.80;;;12.90;99.90;;;;;;5016986;28;20462;-68
2024/02/18 11:16:29;;;;;;;1.77;0.60;;;12.90;99.90;;;;;;5017177;28;20046;-68
2024/02/18 11:18:58;;;;;;;1.42;0.80;;;12.90;99.90;;;;;;5017524;28;20034;-68
2024/02/18 11:21:25;;;;;;;1.27;0.52;;;13.00;99.90;;;;;;5017232;28;20049;-68
2024/02/18 11:23:52;;;;;;;2.55;0.60;;;13.00;99.90;;;;;;5017370;28;20426;-68
2024/02/18 11:26:19;;;;;;;2.65;0.70;;;13.00;99.90;;;;;;5017025;28;20045;-68
2024/02/18 11:28:45;;;;;;;4.22;1.35;;;13.00;99.90;;;;;;5016852;28;20129;-68
2024/02/18 11:31:14;;;;;;;3.08;1.30;;;13.10;99.90;;;;;;5016651;28;20379;-67
2024/02/18 11:33:41;;;;;;;3.10;1.00;;;13.30;99.90;;;;;;5016922;28;20052;-68
2024/02/18 11:36:08;;;;;;;3.67;1.05;;;13.40;99.90;;;;;;5016719;28;20053;-67
2024/02/18 11:38:35;;;;;;;2.35;1.00;;;13.50;99.90;;;;;;5015652;28;20042;-68
2024/02/18 11:41:02;;;;;;;2.33;1.20;;;13.60;99.90;;;;;;5016558;28;20046;-68
2024/02/18 11:43:28;;;;;;;1.98;0.60;;;13.70;99.90;;;;;;5016312;28;20119;-68
2024/02/18 11:45:55;;;;;;;2.10;0.60;;;13.70;99.90;;;;;;5015628;28;20121;-68
2024/02/18 11:48:22;;;;;;;1.85;0.60;;;13.70;99.90;;;;;;5015711;28;20038;-68
2024/02/18 11:50:49;;;;;;;3.88;0.80;;;13.70;99.90;;;;;;5016023;28;20044;-68
2024/02/18 11:53:16;;;;;;;2.75;0.70;;;13.70;99.90;;;;;;5016359;28;20100;-67
2024/02/18 11:55:42;;;;;;;2.55;0.50;;;13.70;99.90;;;;;;5016066;28;20050;-68
2024/02/18 11:58:09;;;;;;;2.70;0.60;;;13.60;99.90;;;;;;5016144;28;20038;-68
2024/02/18 12:00:36;;;;;;;2.28;0.63;;;13.60;99.90;;;;;;5016139;28;20490;-68
2024/02/18 12:03:03;;;;;;;3.00;0.70;;;13.70;99.90;;;;;;5016347;28;20072;-69
2024/02/18 12:05:30;;;;;;;1.40;0.50;;;13.70;99.90;;;;;;5015795;28;20494;-68
2024/02/18 12:07:58;;;;;;;2.92;0.73;;;13.80;99.90;;;;;;5016374;28;20050;-69
2024/02/18 12:10:27;;;;;;;1.85;0.80;;;13.80;99.90;;;;;;5016051;28;20049;-68
2024/02/18 12:12:54;;;;;;;2.00;0.80;;;13.70;99.90;;;;;;5016303;28;20053;-68
2024/02/18 12:15:25;;;;;;;2.10;0.90;;;13.70;99.90;;;;;;5015691;28;20058;-67
2024/02/18 12:17:53;;;;;;;1.70;0.65;;;13.70;99.90;;;;;;5015304;28;20038;-68
2024/02/18 12:20:22;;;;;;;2.08;0.63;;;13.70;99.90;;;;;;5014852;28;20042;-68
2024/02/18 12:22:50;;;;;;;2.50;0.63;;;13.80;99.90;;;;;;5014403;28;20085;-68
2024/02/18 12:25:17;;;;;;;2.03;0.80;;;13.70;99.90;;;;;;5015621;28;20084;-68
2024/02/18 12:27:44;;;;;;;2.58;0.60;;;13.70;99.90;;;;;;5016092;28;20103;-68
2024/02/18 12:30:16;;;;;;;2.17;0.75;;;13.60;99.90;;;;;;5015945;28;20065;-68
2024/02/18 12:32:45;;;;;;;2.13;0.70;;;13.70;99.90;;;;;;5015993;28;20054;-68
2024/02/18 12:35:12;;;;;;;3.17;0.90;;;13.70;99.90;;;;;;5015405;28;20034;-68
2024/02/18 12:37:39;;;;;;;3.10;0.95;;;13.70;99.90;;;;;;5015908;28;20038;-67
2024/02/18 12:40:06;;;;;;;3.45;0.77;;;13.70;99.90;;;;;;5015575;28;20133;-67
2024/02/18 12:42:33;;;;;;;3.40;1.00;;;13.80;99.90;;;;;;5015836;28;20050;-67
2024/02/18 12:45:17;;;;;;;2.70;1.05;;;13.90;99.90;;;;;;5015615;28;20034;-69
2024/02/18 12:48:06;;;;;;;3.75;1.35;;;14.00;99.90;;;;;;5015597;28;20088;-68